createdAt,value
2022-09-06T00:00:01.108Z,1021.32
2022-09-06T00:01:08.504Z,1021.3
2022-09-06T00:02:01.948Z,1021.32
2022-09-06T00:03:01.265Z,1021.34
2022-09-06T00:04:01.340Z,1021.32
2022-09-06T00:05:02.148Z,1021.34
2022-09-06T00:06:10.619Z,1021.33
2022-09-06T00:07:01.453Z,1021.33
2022-09-06T00:08:01.152Z,1021.35
2022-09-06T00:09:00.856Z,1021.34
2022-09-06T00:10:01.187Z,1021.31
2022-09-06T00:11:14.282Z,1021.33
2022-09-06T00:12:02.417Z,1021.3
2022-09-06T00:13:01.862Z,1021.28
2022-09-06T00:14:01.099Z,1021.29
2022-09-06T00:15:01.514Z,1021.31
2022-09-06T00:16:01.306Z,1021.3
2022-09-06T00:17:01.125Z,1021.25
2022-09-06T00:18:01.056Z,1021.22
2022-09-06T00:19:01.035Z,1021.28
2022-09-06T00:20:01.043Z,1021.27
2022-09-06T00:21:01.149Z,1021.26
2022-09-06T00:22:01.151Z,1021.23
2022-09-06T00:23:01.056Z,1021.23
2022-09-06T00:24:01.621Z,1021.26
2022-09-06T00:25:01.073Z,1021.27
2022-09-06T00:26:01.084Z,1021.23
2022-09-06T00:27:01.080Z,1021.22
2022-09-06T00:28:01.096Z,1021.25
2022-09-06T00:29:01.101Z,1021.23
2022-09-06T00:30:01.159Z,1021.19
2022-09-06T00:31:01.220Z,1021.21
2022-09-06T00:32:01.465Z,1021.19
2022-09-06T00:33:01.527Z,1021.17
2022-09-06T00:34:01.139Z,1021.17
2022-09-06T00:35:01.137Z,1021.13
2022-09-06T00:36:01.051Z,1021.12
2022-09-06T00:37:01.145Z,1021.15
2022-09-06T00:38:01.046Z,1021.12
2022-09-06T00:39:01.077Z,1021.15
2022-09-06T00:40:01.189Z,1021.19
2022-09-06T00:41:01.100Z,1021.16
2022-09-06T00:42:01.036Z,1021.16
2022-09-06T00:43:01.095Z,1021.12
2022-09-06T00:44:01.094Z,1021.11
2022-09-06T00:45:01.037Z,1021.1
2022-09-06T00:46:01.207Z,1021.1
2022-09-06T00:47:01.115Z,1021.09
2022-09-06T00:48:01.115Z,1021.1
2022-09-06T00:49:01.411Z,1021.12
2022-09-06T00:50:01.511Z,1021.1
2022-09-06T00:51:03.152Z,1021.09
2022-09-06T00:52:01.153Z,1021.06
2022-09-06T00:53:01.882Z,1021.1
2022-09-06T00:54:01.822Z,1021.09
2022-09-06T00:55:00.475Z,1021.11
2022-09-06T00:56:00.145Z,1021.12
2022-09-06T00:56:59.827Z,1021.14
2022-09-06T00:58:01.459Z,1021.15
2022-09-06T00:59:02.218Z,1021.13
2022-09-06T01:00:01.199Z,1021.1
2022-09-06T01:01:02.189Z,1021.11
2022-09-06T01:02:01.270Z,1021.11
2022-09-06T01:03:01.109Z,1021.1
2022-09-06T01:04:01.121Z,1021.09
2022-09-06T01:05:01.175Z,1021.1
2022-09-06T01:06:01.166Z,1021.06
2022-09-06T01:07:01.553Z,1021.07
2022-09-06T01:08:01.248Z,1021.08
2022-09-06T01:09:03.929Z,1021.03
2022-09-06T01:10:01.982Z,1021.01
2022-09-06T01:11:01.074Z,1021.04
2022-09-06T01:12:01.076Z,1021.04
2022-09-06T01:13:01.078Z,1020.97
2022-09-06T01:14:01.096Z,1021
2022-09-06T01:15:01.428Z,1020.96
2022-09-06T01:16:02.061Z,1020.98
2022-09-06T01:17:01.942Z,1021
2022-09-06T01:18:01.772Z,1021.01
2022-09-06T01:19:01.064Z,1020.97
2022-09-06T01:20:01.120Z,1021.01
2022-09-06T01:21:01.115Z,1020.97
2022-09-06T01:22:01.138Z,1021
2022-09-06T01:23:01.388Z,1020.96
2022-09-06T01:24:03.839Z,1020.97
2022-09-06T01:25:01.518Z,1020.95
2022-09-06T01:26:01.082Z,1020.97
2022-09-06T01:27:01.062Z,1020.97
2022-09-06T01:28:01.061Z,1020.97
2022-09-06T01:29:01.073Z,1020.95
2022-09-06T01:30:01.080Z,1020.94
2022-09-06T01:31:01.163Z,1020.97
2022-09-06T01:32:01.133Z,1020.9
2022-09-06T01:33:01.205Z,1020.94
2022-09-06T01:34:01.185Z,1020.94
2022-09-06T01:35:01.419Z,1020.94
2022-09-06T01:36:01.049Z,1020.92
2022-09-06T01:37:10.444Z,1020.9
2022-09-06T01:38:01.058Z,1020.93
2022-09-06T01:39:01.042Z,1020.99
2022-09-06T01:40:01.258Z,1020.94
2022-09-06T01:41:01.339Z,1020.88
2022-09-06T01:42:06.874Z,1020.93
2022-09-06T01:43:02.078Z,1020.92
2022-09-06T01:44:01.883Z,1020.89
2022-09-06T01:45:01.103Z,1020.91
2022-09-06T01:46:01.151Z,1020.92
2022-09-06T01:47:09.964Z,1020.89
2022-09-06T01:48:01.092Z,1020.94
2022-09-06T01:49:01.103Z,1020.95
2022-09-06T01:50:01.131Z,1020.97
2022-09-06T01:51:01.144Z,1021
2022-09-06T01:52:11.900Z,1020.99
2022-09-06T01:53:01.131Z,1021
2022-09-06T01:54:01.145Z,1020.99
2022-09-06T01:55:01.151Z,1021.08
2022-09-06T01:56:01.054Z,1021.06
2022-09-06T01:57:14.318Z,1021.12
2022-09-06T01:58:01.058Z,1021.07
2022-09-06T01:59:01.057Z,1021.04
2022-09-06T02:00:01.452Z,1021.09
2022-09-06T02:01:01.502Z,1021.07
2022-09-06T02:02:17.003Z,1021.07
2022-09-06T02:03:01.087Z,1021.05
2022-09-06T02:04:01.147Z,1021.06
2022-09-06T02:05:01.623Z,1021.09
2022-09-06T02:06:01.265Z,1021.07
2022-09-06T02:07:01.925Z,1021.1
2022-09-06T02:08:01.122Z,1021.08
2022-09-06T02:09:00.692Z,1021.05
2022-09-06T02:10:00.308Z,1021.05
2022-09-06T02:10:59.910Z,1021.08
2022-09-06T02:11:59.486Z,1021.08
2022-09-06T02:13:01.741Z,1021.04
2022-09-06T02:14:01.988Z,1021.06
2022-09-06T02:15:01.477Z,1021.04
2022-09-06T02:16:01.854Z,1021.06
2022-09-06T02:17:01.666Z,1021.03
2022-09-06T02:18:01.388Z,1021.02
2022-09-06T02:19:01.055Z,1021.03
2022-09-06T02:20:01.149Z,1021.03
2022-09-06T02:21:01.113Z,1021.02
2022-09-06T02:22:01.117Z,1021.03
2022-09-06T02:23:01.125Z,1021
2022-09-06T02:24:01.133Z,1021.06
2022-09-06T02:25:01.035Z,1021.08
2022-09-06T02:26:01.155Z,1021.06
2022-09-06T02:27:01.045Z,1021.08
2022-09-06T02:28:01.364Z,1021.07
2022-09-06T02:29:01.429Z,1021
2022-09-06T02:30:01.069Z,1021.07
2022-09-06T02:31:01.145Z,1021
2022-09-06T02:32:01.079Z,1021.02
2022-09-06T02:33:01.097Z,1021.05
2022-09-06T02:34:01.089Z,1021
2022-09-06T02:35:01.088Z,1021.1
2022-09-06T02:36:01.117Z,1021.04
2022-09-06T02:37:01.108Z,1021.03
2022-09-06T02:38:01.249Z,1021.04
2022-09-06T02:39:01.024Z,1021.06
2022-09-06T02:40:01.276Z,1021.05
2022-09-06T02:41:01.149Z,1021.05
2022-09-06T02:42:01.865Z,1021.02
2022-09-06T02:43:01.050Z,1021.05
2022-09-06T02:44:01.054Z,1021.04
2022-09-06T02:45:01.065Z,1021.02
2022-09-06T02:46:01.634Z,1021.05
2022-09-06T02:47:02.083Z,1021.01
2022-09-06T02:48:01.765Z,1020.98
2022-09-06T02:49:01.027Z,1020.95
2022-09-06T02:50:01.098Z,1020.99
2022-09-06T02:51:01.112Z,1021.03
2022-09-06T02:52:01.106Z,1020.98
2022-09-06T02:53:01.115Z,1020.97
2022-09-06T02:54:01.257Z,1020.95
2022-09-06T02:55:01.368Z,1020.98
2022-09-06T02:56:03.998Z,1020.98
2022-09-06T02:57:01.550Z,1020.95
2022-09-06T02:58:01.709Z,1020.96
2022-09-06T02:59:01.659Z,1020.94
2022-09-06T03:00:01.729Z,1020.89
2022-09-06T03:01:01.826Z,1020.93
2022-09-06T03:02:02.016Z,1020.87
2022-09-06T03:03:02.199Z,1020.89
2022-09-06T03:04:01.087Z,1020.86
2022-09-06T03:05:01.090Z,1020.83
2022-09-06T03:06:01.131Z,1020.8
2022-09-06T03:07:01.103Z,1020.81
2022-09-06T03:08:01.508Z,1020.77
2022-09-06T03:09:00.805Z,1020.79
2022-09-06T03:10:00.412Z,1020.77
2022-09-06T03:11:00.016Z,1020.75
2022-09-06T03:11:59.705Z,1020.76
2022-09-06T03:13:01.861Z,1020.74
2022-09-06T03:14:01.422Z,1020.73
2022-09-06T03:15:00.949Z,1020.72
2022-09-06T03:16:01.069Z,1020.69
2022-09-06T03:17:01.160Z,1020.68
2022-09-06T03:18:01.068Z,1020.65
2022-09-06T03:19:01.078Z,1020.59
2022-09-06T03:20:01.206Z,1020.55
2022-09-06T03:21:01.335Z,1020.6
2022-09-06T03:22:01.340Z,1020.55
2022-09-06T03:23:01.857Z,1020.55
2022-09-06T03:24:02.021Z,1020.59
2022-09-06T03:25:01.518Z,1020.55
2022-09-06T03:26:01.139Z,1020.61
2022-09-06T03:27:01.127Z,1020.58
2022-09-06T03:28:04.913Z,1020.54
2022-09-06T03:29:00.829Z,1020.58
2022-09-06T03:30:00.595Z,1020.55
2022-09-06T03:31:00.319Z,1020.55
2022-09-06T03:31:59.913Z,1020.57
2022-09-06T03:33:06.689Z,1020.52
2022-09-06T03:34:01.069Z,1020.54
2022-09-06T03:35:01.104Z,1020.59
2022-09-06T03:36:01.062Z,1020.57
2022-09-06T03:37:01.109Z,1020.57
2022-09-06T03:38:09.798Z,1020.57
2022-09-06T03:39:01.404Z,1020.57
2022-09-06T03:40:04.146Z,1020.58
2022-09-06T03:41:02.169Z,1020.62
2022-09-06T03:42:02.179Z,1020.54
2022-09-06T03:43:13.303Z,1020.56
2022-09-06T03:44:01.031Z,1020.5
2022-09-06T03:45:01.060Z,1020.53
2022-09-06T03:46:01.105Z,1020.54
2022-09-06T03:47:01.052Z,1020.55
2022-09-06T03:48:16.488Z,1020.52
2022-09-06T03:49:01.181Z,1020.53
2022-09-06T03:50:01.497Z,1020.51
2022-09-06T03:51:01.100Z,1020.55
2022-09-06T03:52:00.602Z,1020.55
2022-09-06T03:53:00.290Z,1020.57
2022-09-06T03:53:59.873Z,1020.57
2022-09-06T03:54:59.535Z,1020.61
2022-09-06T03:56:02.475Z,1020.54
2022-09-06T03:57:01.350Z,1020.58
2022-09-06T03:58:02.101Z,1020.63
2022-09-06T03:59:01.049Z,1020.63
2022-09-06T04:00:01.096Z,1020.63
2022-09-06T04:01:01.217Z,1020.63
2022-09-06T04:02:01.165Z,1020.64
2022-09-06T04:03:01.933Z,1020.62
2022-09-06T04:04:01.742Z,1020.65
2022-09-06T04:05:00.891Z,1020.61
2022-09-06T04:06:01.276Z,1020.6
2022-09-06T04:07:01.475Z,1020.56
2022-09-06T04:08:01.212Z,1020.57
2022-09-06T04:09:01.143Z,1020.58
2022-09-06T04:10:01.036Z,1020.56
2022-09-06T04:11:01.145Z,1020.57
2022-09-06T04:12:01.032Z,1020.58
2022-09-06T04:13:01.428Z,1020.55
2022-09-06T04:14:01.148Z,1020.56
2022-09-06T04:15:01.074Z,1020.58
2022-09-06T04:16:01.059Z,1020.55
2022-09-06T04:17:01.970Z,1020.57
2022-09-06T04:18:04.934Z,1020.55
2022-09-06T04:19:01.102Z,1020.52
2022-09-06T04:20:00.913Z,1020.56
2022-09-06T04:21:02.242Z,1020.59
2022-09-06T04:22:01.765Z,1020.57
2022-09-06T04:23:01.592Z,1020.53
2022-09-06T04:24:01.134Z,1020.48
2022-09-06T04:25:00.704Z,1020.55
2022-09-06T04:26:00.396Z,1020.55
2022-09-06T04:26:59.980Z,1020.54
2022-09-06T04:27:59.586Z,1020.46
2022-09-06T04:29:01.413Z,1020.52
2022-09-06T04:30:01.242Z,1020.5
2022-09-06T04:31:04.683Z,1020.49
2022-09-06T04:32:01.367Z,1020.49
2022-09-06T04:33:01.970Z,1020.42
2022-09-06T04:34:01.116Z,1020.42
2022-09-06T04:35:01.463Z,1020.39
2022-09-06T04:36:01.071Z,1020.43
2022-09-06T04:37:01.057Z,1020.32
2022-09-06T04:38:01.109Z,1020.37
2022-09-06T04:39:01.113Z,1020.36
2022-09-06T04:40:01.687Z,1020.41
2022-09-06T04:41:01.455Z,1020.34
2022-09-06T04:42:01.539Z,1020.41
2022-09-06T04:43:01.695Z,1020.38
2022-09-06T04:44:01.151Z,1020.42
2022-09-06T04:45:01.215Z,1020.43
2022-09-06T04:46:01.236Z,1020.42
2022-09-06T04:47:04.333Z,1020.43
2022-09-06T04:48:01.258Z,1020.39
2022-09-06T04:49:01.422Z,1020.45
2022-09-06T04:50:01.519Z,1020.44
2022-09-06T04:51:04.152Z,1020.48
2022-09-06T04:52:02.410Z,1020.44
2022-09-06T04:53:01.057Z,1020.43
2022-09-06T04:54:01.101Z,1020.48
2022-09-06T04:55:03.754Z,1020.46
2022-09-06T04:56:01.222Z,1020.46
2022-09-06T04:57:02.402Z,1020.45
2022-09-06T04:58:01.132Z,1020.4
2022-09-06T04:59:02.249Z,1020.48
2022-09-06T05:00:01.123Z,1020.42
2022-09-06T05:01:01.216Z,1020.44
2022-09-06T05:02:02.004Z,1020.4
2022-09-06T05:03:01.047Z,1020.38
2022-09-06T05:04:04.513Z,1020.42
2022-09-06T05:05:01.039Z,1020.39
2022-09-06T05:06:01.024Z,1020.38
2022-09-06T05:07:01.422Z,1020.41
2022-09-06T05:08:01.475Z,1020.46
2022-09-06T05:09:07.956Z,1020.39
2022-09-06T05:10:01.097Z,1020.44
2022-09-06T05:11:01.673Z,1020.41
2022-09-06T05:12:01.501Z,1020.45
2022-09-06T05:13:01.120Z,1020.43
2022-09-06T05:14:10.260Z,1020.4
2022-09-06T05:15:01.196Z,1020.38
2022-09-06T05:16:01.495Z,1020.46
2022-09-06T05:17:01.052Z,1020.44
2022-09-06T05:18:01.029Z,1020.46
2022-09-06T05:19:13.454Z,1020.48
2022-09-06T05:20:01.358Z,1020.5
2022-09-06T05:21:01.062Z,1020.51
2022-09-06T05:22:01.343Z,1020.48
2022-09-06T05:23:01.097Z,1020.48
2022-09-06T05:24:14.983Z,1020.52
2022-09-06T05:25:01.907Z,1020.54
2022-09-06T05:26:01.535Z,1020.56
2022-09-06T05:27:01.681Z,1020.55
2022-09-06T05:28:01.295Z,1020.56
2022-09-06T05:29:16.581Z,1020.51
2022-09-06T05:30:01.122Z,1020.47
2022-09-06T05:31:01.142Z,1020.5
2022-09-06T05:32:01.265Z,1020.49
2022-09-06T05:33:01.088Z,1020.53
2022-09-06T05:34:00.639Z,1020.52
2022-09-06T05:35:00.238Z,1020.52
2022-09-06T05:35:59.972Z,1020.55
2022-09-06T05:36:59.639Z,1020.52
2022-09-06T05:38:01.581Z,1020.55
2022-09-06T05:39:01.475Z,1020.53
2022-09-06T05:40:01.248Z,1020.53
2022-09-06T05:41:02.006Z,1020.57
2022-09-06T05:42:02.005Z,1020.62
2022-09-06T05:43:01.110Z,1020.59
2022-09-06T05:44:01.127Z,1020.56
2022-09-06T05:45:01.214Z,1020.58
2022-09-06T05:46:01.515Z,1020.52
2022-09-06T05:47:01.240Z,1020.54
2022-09-06T05:48:01.135Z,1020.56
2022-09-06T05:49:01.086Z,1020.58
2022-09-06T05:50:01.039Z,1020.55
2022-09-06T05:51:01.057Z,1020.58
2022-09-06T05:52:01.397Z,1020.55
2022-09-06T05:53:01.327Z,1020.58
2022-09-06T05:54:02.010Z,1020.53
2022-09-06T05:55:02.022Z,1020.6
2022-09-06T05:56:01.229Z,1020.58
2022-09-06T05:57:01.092Z,1020.56
2022-09-06T05:58:01.096Z,1020.59
2022-09-06T05:59:01.453Z,1020.58
2022-09-06T06:00:01.146Z,1020.57
2022-09-06T06:01:01.173Z,1020.61
2022-09-06T06:02:04.365Z,1020.65
2022-09-06T06:03:01.134Z,1020.68
2022-09-06T06:04:01.150Z,1020.63
2022-09-06T06:05:01.427Z,1020.67
2022-09-06T06:06:01.071Z,1020.61
2022-09-06T06:07:01.066Z,1020.59
2022-09-06T06:08:01.066Z,1020.56
2022-09-06T06:09:01.085Z,1020.61
2022-09-06T06:10:01.088Z,1020.59
2022-09-06T06:11:01.065Z,1020.58
2022-09-06T06:12:01.765Z,1020.55
2022-09-06T06:13:01.680Z,1020.54
2022-09-06T06:14:01.690Z,1020.55
2022-09-06T06:15:01.805Z,1020.55
2022-09-06T06:16:02.576Z,1020.55
2022-09-06T06:17:01.212Z,1020.61
2022-09-06T06:18:01.176Z,1020.56
2022-09-06T06:19:01.850Z,1020.54
2022-09-06T06:20:01.619Z,1020.58
2022-09-06T06:21:01.532Z,1020.54
2022-09-06T06:22:01.217Z,1020.52
2022-09-06T06:23:01.065Z,1020.53
2022-09-06T06:24:01.073Z,1020.53
2022-09-06T06:25:01.095Z,1020.56
2022-09-06T06:26:01.093Z,1020.51
2022-09-06T06:27:01.142Z,1020.56
2022-09-06T06:28:01.425Z,1020.51
2022-09-06T06:29:01.138Z,1020.5
2022-09-06T06:30:01.543Z,1020.51
2022-09-06T06:31:00.911Z,1020.48
2022-09-06T06:32:00.795Z,1020.47
2022-09-06T06:33:00.609Z,1020.47
2022-09-06T06:34:00.329Z,1020.46
2022-09-06T06:35:00.153Z,1020.48
2022-09-06T06:36:00.557Z,1020.41
2022-09-06T06:37:00.389Z,1020.42
2022-09-06T06:38:00.380Z,1020.4
2022-09-06T06:39:00.409Z,1020.38
2022-09-06T06:40:00.156Z,1020.32
2022-09-06T06:41:04.410Z,1020.33
2022-09-06T06:42:01.325Z,1020.29
2022-09-06T06:43:01.389Z,1020.31
2022-09-06T06:44:01.306Z,1020.25
2022-09-06T06:45:01.108Z,1020.2
2022-09-06T06:46:01.067Z,1020.16
2022-09-06T06:47:00.797Z,1020.19
2022-09-06T06:48:00.411Z,1020.13
2022-09-06T06:49:00.408Z,1020.12
2022-09-06T06:50:01.558Z,1020.07
2022-09-06T06:51:01.305Z,1020.16
2022-09-06T06:52:01.504Z,1020.14
2022-09-06T06:53:01.497Z,1020.14
2022-09-06T06:54:01.075Z,1020.19
2022-09-06T06:55:04.571Z,1020.2
2022-09-06T06:56:01.300Z,1020.21
2022-09-06T06:57:01.915Z,1020.22
2022-09-06T06:58:01.461Z,1020.19
2022-09-06T06:59:01.213Z,1020.26
2022-09-06T07:00:08.670Z,1020.22
2022-09-06T07:01:01.590Z,1020.2
2022-09-06T07:02:02.250Z,1020.22
2022-09-06T07:03:01.312Z,1020.23
2022-09-06T07:04:01.130Z,1020.2
2022-09-06T07:06:17.186Z,1020.16
2022-09-06T07:08:01.322Z,1020.18
2022-09-06T07:09:01.237Z,1020.24
2022-09-06T07:11:01.065Z,1020.23
2022-09-06T07:12:01.090Z,1020.21
2022-09-06T07:13:01.123Z,1020.21
2022-09-06T07:14:01.336Z,1020.23
2022-09-06T07:15:15.924Z,1020.2
2022-09-06T07:16:01.609Z,1020.27
2022-09-06T07:17:01.107Z,1020.2
2022-09-06T07:18:01.478Z,1020.25
2022-09-06T07:19:01.663Z,1020.24
2022-09-06T07:20:17.510Z,1020.19
2022-09-06T07:22:04.522Z,1020.28
2022-09-06T07:25:01.056Z,1020.3
2022-09-06T07:26:01.456Z,1020.31
2022-09-06T07:28:05.742Z,1020.35
2022-09-06T07:29:01.691Z,1020.32
2022-09-06T07:30:01.108Z,1020.37
2022-09-06T07:31:01.491Z,1020.35
2022-09-06T07:32:17.237Z,1020.37
2022-09-06T07:33:01.107Z,1020.4
2022-09-06T07:34:01.133Z,1020.38
2022-09-06T07:35:01.119Z,1020.37
2022-09-06T07:36:01.514Z,1020.39
2022-09-06T07:37:02.605Z,1020.39
2022-09-06T07:38:02.127Z,1020.35
2022-09-06T07:39:01.839Z,1020.33
2022-09-06T07:40:01.090Z,1020.28
2022-09-06T07:41:01.055Z,1020.31
2022-09-06T07:42:01.304Z,1020.22
2022-09-06T07:43:01.169Z,1020.27
2022-09-06T07:44:01.087Z,1020.15
2022-09-06T07:45:01.117Z,1020.2
2022-09-06T07:46:01.487Z,1020.22
2022-09-06T07:48:01.132Z,1020.17
2022-09-06T07:49:01.122Z,1020.21
2022-09-06T07:51:01.135Z,1020.23
2022-09-06T07:52:01.306Z,1020.23
2022-09-06T07:53:10.931Z,1020.19
2022-09-06T07:55:01.965Z,1020.26
2022-09-06T07:56:01.060Z,1020.23
2022-09-06T07:57:01.069Z,1020.25
2022-09-06T07:58:01.035Z,1020.24
2022-09-06T07:59:01.075Z,1020.33
2022-09-06T08:00:01.041Z,1020.26
2022-09-06T08:01:01.088Z,1020.3
2022-09-06T08:02:01.136Z,1020.36
2022-09-06T08:03:01.198Z,1020.37
2022-09-06T08:04:01.124Z,1020.37
2022-09-06T08:05:01.101Z,1020.4
2022-09-06T08:06:09.093Z,1020.41
2022-09-06T08:09:01.048Z,1020.34
2022-09-06T08:10:01.138Z,1020.31
2022-09-06T08:11:01.053Z,1020.35
2022-09-06T08:12:01.245Z,1020.35
2022-09-06T08:13:00.821Z,1020.35
2022-09-06T08:14:00.882Z,1020.38
2022-09-06T08:15:01.083Z,1020.36
2022-09-06T08:16:01.186Z,1020.44
2022-09-06T08:17:01.926Z,1020.42
2022-09-06T08:18:01.107Z,1020.43
2022-09-06T08:19:01.141Z,1020.4
2022-09-06T08:20:01.115Z,1020.43
2022-09-06T08:21:01.136Z,1020.45
2022-09-06T08:22:01.238Z,1020.43
2022-09-06T08:23:01.347Z,1020.39
2022-09-06T08:24:01.144Z,1020.41
2022-09-06T08:25:01.145Z,1020.31
2022-09-06T08:26:01.060Z,1020.29
2022-09-06T08:27:01.197Z,1020.33
2022-09-06T08:28:01.066Z,1020.29
2022-09-06T08:29:01.091Z,1020.28
2022-09-06T08:30:01.077Z,1020.3
2022-09-06T08:31:01.050Z,1020.27
2022-09-06T08:32:01.121Z,1020.26
2022-09-06T08:33:01.029Z,1020.3
2022-09-06T08:34:01.462Z,1020.29
2022-09-06T08:35:01.484Z,1020.35
2022-09-06T08:36:03.033Z,1020.32
2022-09-06T08:37:01.116Z,1020.31
2022-09-06T08:38:01.128Z,1020.33
2022-09-06T08:39:01.141Z,1020.35
2022-09-06T08:40:01.202Z,1020.33
2022-09-06T08:41:00.926Z,1020.31
2022-09-06T08:42:01.673Z,1020.28
2022-09-06T08:43:01.068Z,1020.3
2022-09-06T08:45:00.776Z,1020.34
2022-09-06T08:46:04.038Z,1020.36
2022-09-06T08:47:02.145Z,1020.37
2022-09-06T08:48:01.089Z,1020.36
2022-09-06T08:49:01.050Z,1020.32
2022-09-06T08:50:01.033Z,1020.32
2022-09-06T08:51:06.156Z,1020.31
2022-09-06T08:52:00.496Z,1020.32
2022-09-06T08:53:16.225Z,1020.3
2022-09-06T08:54:02.150Z,1020.3
2022-09-06T08:55:01.141Z,1020.28
2022-09-06T08:56:09.761Z,1020.29
2022-09-06T08:57:01.728Z,1020.24
2022-09-06T08:58:01.106Z,1020.21
2022-09-06T08:59:01.097Z,1020.21
2022-09-06T09:00:01.444Z,1020.19
2022-09-06T09:01:12.002Z,1020.19
2022-09-06T09:02:04.111Z,1020.14
2022-09-06T09:03:01.173Z,1020.17
2022-09-06T09:04:01.106Z,1020.18
2022-09-06T09:05:01.099Z,1020.19
2022-09-06T09:06:14.488Z,1020.21
2022-09-06T09:07:01.679Z,1020.19
2022-09-06T09:08:02.547Z,1020.14
2022-09-06T09:09:01.331Z,1020.1
2022-09-06T09:10:01.132Z,1020.1
2022-09-06T09:11:16.465Z,1020.08
2022-09-06T09:12:01.545Z,1020.08
2022-09-06T09:13:01.286Z,1020.05
2022-09-06T09:14:02.746Z,1020.05
2022-09-06T09:15:01.071Z,1020.05
2022-09-06T09:16:01.150Z,1020
2022-09-06T09:17:01.073Z,1020.02
2022-09-06T09:18:01.078Z,1020.04
2022-09-06T09:19:01.110Z,1019.96
2022-09-06T09:20:01.094Z,1020.04
2022-09-06T09:21:01.097Z,1020.03
2022-09-06T09:22:01.500Z,1020.05
2022-09-06T09:23:01.116Z,1020.03
2022-09-06T09:24:01.139Z,1020
2022-09-06T09:25:01.146Z,1019.99
2022-09-06T09:26:01.279Z,1020
2022-09-06T09:27:01.037Z,1019.98
2022-09-06T09:28:01.058Z,1019.96
2022-09-06T09:29:01.069Z,1019.95
2022-09-06T09:31:01.823Z,1019.93
2022-09-06T09:32:04.090Z,1019.9
2022-09-06T09:33:01.102Z,1019.87
2022-09-06T09:34:01.769Z,1019.87
2022-09-06T09:35:01.100Z,1019.87
2022-09-06T09:36:01.097Z,1019.85
2022-09-06T09:38:07.746Z,1019.77
2022-09-06T09:39:01.155Z,1019.75
2022-09-06T09:40:01.621Z,1019.72
2022-09-06T09:41:01.691Z,1019.71
2022-09-06T09:42:01.338Z,1019.7
2022-09-06T09:43:01.969Z,1019.68
2022-09-06T09:44:04.678Z,1019.61
2022-09-06T09:45:01.078Z,1019.62
2022-09-06T09:46:01.073Z,1019.62
2022-09-06T09:47:01.504Z,1019.61
2022-09-06T09:48:01.197Z,1019.6
2022-09-06T09:49:01.204Z,1019.62
2022-09-06T09:50:01.084Z,1019.64
2022-09-06T09:51:01.103Z,1019.67
2022-09-06T09:52:01.119Z,1019.62
2022-09-06T09:53:01.231Z,1019.62
2022-09-06T09:54:01.121Z,1019.67
2022-09-06T09:55:01.108Z,1019.65
2022-09-06T09:56:01.270Z,1019.64
2022-09-06T09:57:01.131Z,1019.64
2022-09-06T09:58:01.191Z,1019.67
2022-09-06T09:59:01.079Z,1019.66
2022-09-06T10:00:01.157Z,1019.63
2022-09-06T10:01:01.554Z,1019.63
2022-09-06T10:02:01.067Z,1019.65
2022-09-06T10:03:01.107Z,1019.62
2022-09-06T10:05:01.093Z,1019.59
2022-09-06T10:06:03.233Z,1019.64
2022-09-06T10:07:08.872Z,1019.64
2022-09-06T10:08:01.500Z,1019.65
2022-09-06T10:09:02.289Z,1019.59
2022-09-06T10:10:01.306Z,1019.6
2022-09-06T10:11:01.343Z,1019.55
2022-09-06T10:12:01.145Z,1019.55
2022-09-06T10:13:01.141Z,1019.52
2022-09-06T10:14:00.996Z,1019.56
2022-09-06T10:15:03.581Z,1019.55
2022-09-06T10:15:59.562Z,1019.56
2022-09-06T10:17:01.801Z,1019.53
2022-09-06T10:18:02.428Z,1019.48
2022-09-06T10:19:01.957Z,1019.52
2022-09-06T10:20:02.092Z,1019.43
2022-09-06T10:21:01.200Z,1019.43
2022-09-06T10:22:01.147Z,1019.42
2022-09-06T10:23:01.108Z,1019.38
2022-09-06T10:25:01.202Z,1019.4
2022-09-06T10:26:01.139Z,1019.46
2022-09-06T10:27:01.191Z,1019.47
2022-09-06T10:28:10.808Z,1019.44
2022-09-06T10:29:01.540Z,1019.44
2022-09-06T10:30:01.308Z,1019.41
2022-09-06T10:31:03.074Z,1019.41
2022-09-06T10:32:04.208Z,1019.41
2022-09-06T10:33:01.792Z,1019.38
2022-09-06T10:34:01.484Z,1019.44
2022-09-06T10:35:01.174Z,1019.35
2022-09-06T10:36:01.868Z,1019.41
2022-09-06T10:37:06.864Z,1019.34
2022-09-06T10:38:01.000Z,1019.35
2022-09-06T10:39:03.945Z,1019.29
2022-09-06T10:40:01.172Z,1019.31
2022-09-06T10:41:01.137Z,1019.35
2022-09-06T10:42:11.109Z,1019.3
2022-09-06T10:43:01.266Z,1019.3
2022-09-06T10:44:01.724Z,1019.27
2022-09-06T10:45:01.052Z,1019.32
2022-09-06T10:46:01.199Z,1019.29
2022-09-06T10:47:13.849Z,1019.3
2022-09-06T10:48:01.152Z,1019.3
2022-09-06T10:49:01.192Z,1019.27
2022-09-06T10:50:01.145Z,1019.28
2022-09-06T10:51:01.263Z,1019.25
2022-09-06T10:52:16.903Z,1019.32
2022-09-06T10:53:02.366Z,1019.29
2022-09-06T10:54:01.510Z,1019.31
2022-09-06T10:55:01.784Z,1019.29
2022-09-06T10:56:02.658Z,1019.28
2022-09-06T10:57:01.293Z,1019.29
2022-09-06T10:58:16.508Z,1019.31
2022-09-06T11:00:01.243Z,1019.25
2022-09-06T11:01:02.160Z,1019.26
2022-09-06T11:02:01.317Z,1019.25
2022-09-06T11:04:06.849Z,1019.24
2022-09-06T11:06:01.354Z,1019.26
2022-09-06T11:07:01.344Z,1019.26
2022-09-06T11:09:02.551Z,1019.25
2022-09-06T11:10:01.115Z,1019.23
2022-09-06T11:11:01.119Z,1019.24
2022-09-06T11:12:01.164Z,1019.22
2022-09-06T11:13:01.136Z,1019.24
2022-09-06T11:14:05.441Z,1019.2
2022-09-06T11:15:01.547Z,1019.21
2022-09-06T11:16:01.281Z,1019.17
2022-09-06T11:17:01.279Z,1019.18
2022-09-06T11:18:01.071Z,1019.18
2022-09-06T11:19:01.060Z,1019.12
2022-09-06T11:20:04.091Z,1019.17
2022-09-06T11:21:01.074Z,1019.09
2022-09-06T11:22:01.200Z,1019.12
2022-09-06T11:23:01.398Z,1019.17
2022-09-06T11:24:01.437Z,1019.11
2022-09-06T11:25:01.458Z,1019.09
2022-09-06T11:26:01.038Z,1019.05
2022-09-06T11:27:01.165Z,1019.06
2022-09-06T11:28:01.537Z,1019.09
2022-09-06T11:29:03.083Z,1019.06
2022-09-06T11:30:01.305Z,1019.05
2022-09-06T11:31:01.976Z,1019
2022-09-06T11:32:16.615Z,1018.99
2022-09-06T11:33:01.560Z,1019
2022-09-06T11:34:01.293Z,1018.98
2022-09-06T11:35:02.332Z,1018.95
2022-09-06T11:36:02.178Z,1018.96
2022-09-06T11:37:01.126Z,1018.94
2022-09-06T11:38:01.081Z,1018.91
2022-09-06T11:39:01.087Z,1018.88
2022-09-06T11:41:01.111Z,1018.87
2022-09-06T11:42:01.277Z,1018.91
2022-09-06T11:43:01.365Z,1018.82
2022-09-06T11:44:01.293Z,1018.77
2022-09-06T11:45:01.231Z,1018.85
2022-09-06T11:46:01.595Z,1018.82
2022-09-06T11:47:01.355Z,1018.83
2022-09-06T11:48:01.131Z,1018.82
2022-09-06T11:49:01.093Z,1018.81
2022-09-06T11:50:01.161Z,1018.83
2022-09-06T11:51:01.065Z,1018.83
2022-09-06T11:52:01.088Z,1018.84
2022-09-06T11:53:01.143Z,1018.88
2022-09-06T11:54:00.794Z,1018.89
2022-09-06T11:55:00.441Z,1018.83
2022-09-06T11:55:59.991Z,1018.84
2022-09-06T11:56:59.559Z,1018.84
2022-09-06T11:58:01.684Z,1018.84
2022-09-06T11:59:01.707Z,1018.79
2022-09-06T12:00:01.324Z,1018.77
2022-09-06T12:01:01.273Z,1018.76
2022-09-06T12:02:01.077Z,1018.77
2022-09-06T12:04:05.326Z,1018.73
2022-09-06T12:05:01.104Z,1018.7
2022-09-06T12:06:01.066Z,1018.71
2022-09-06T12:07:01.767Z,1018.72
2022-09-06T12:08:01.490Z,1018.67
2022-09-06T12:09:01.086Z,1018.71
2022-09-06T12:10:01.374Z,1018.71
2022-09-06T12:11:01.207Z,1018.71
2022-09-06T12:12:01.864Z,1018.72
2022-09-06T12:13:03.912Z,1018.73
2022-09-06T12:14:02.326Z,1018.73
2022-09-06T12:15:00.521Z,1018.71
2022-09-06T12:16:00.294Z,1018.71
2022-09-06T12:17:00.081Z,1018.68
2022-09-06T12:18:05.441Z,1018.7
2022-09-06T12:19:01.161Z,1018.63
2022-09-06T12:20:01.258Z,1018.68
2022-09-06T12:21:01.157Z,1018.64
2022-09-06T12:22:01.087Z,1018.63
2022-09-06T12:23:09.068Z,1018.63
2022-09-06T12:24:01.165Z,1018.64
2022-09-06T12:25:01.114Z,1018.6
2022-09-06T12:26:01.106Z,1018.6
2022-09-06T12:27:01.123Z,1018.58
2022-09-06T12:28:11.267Z,1018.6
2022-09-06T12:29:01.513Z,1018.58
2022-09-06T12:30:02.300Z,1018.6
2022-09-06T12:31:01.242Z,1018.59
2022-09-06T12:32:01.991Z,1018.6